Time;durP1;ratioP1;P1;durP2;ratioP2;P2;SDS_P1;SDS_P2;PMS_P1;PMS_P2;Temp;Humidity;BMP_temperature;BMP_pressure;BME280_temperature;BME280_humidity;BME280_pressure;Samples;Min_cycle;Max_cycle;Signal;HPM_P1;HPM_P2
2021/03/02 00:03:23;;;;;;;8.23;4.67;;;;;;;;;;10265557;28;20042;-63
2021/03/02 00:08:20;;;;;;;7.40;4.70;;;;;;;;;;10255957;28;20042;-63
2021/03/02 00:13:18;;;;;;;8.50;3.30;;;;;;;;;;10256356;28;20076;-60
2021/03/02 00:18:17;;;;;;;6.70;3.83;;;;;;;;;;10272387;28;20045;-61
2021/03/02 00:23:18;;;;;;;12.20;4.13;;;;;;;;;;10255693;28;20029;-63
2021/03/02 00:28:16;;;;;;;14.52;6.75;;;;;;;;;;10258161;28;20053;-61
2021/03/02 00:33:14;;;;;;;4.95;4.20;;;;;;;;;;10271100;28;20084;-65
2021/03/02 00:38:11;;;;;;;5.57;3.17;;;;;;;;;;10266546;28;20065;-61
2021/03/02 00:43:09;;;;;;;10.73;5.23;;;;;;;;;;10247704;28;20295;-63
2021/03/02 00:48:06;;;;;;;10.73;5.43;;;;;;;;;;10269321;28;20518;-60
2021/03/02 00:53:04;;;;;;;4.97;3.03;;;;;;;;;;10267392;28;20099;-59
2021/03/02 00:58:01;;;;;;;2.37;1.70;;;;;;;;;;10245905;28;20072;-62
2021/03/02 01:03:04;;;;;;;8.90;4.80;;;;;;;;;;10273180;28;20041;-62
2021/03/02 01:08:05;;;;;;;5.32;3.03;;;;;;;;;;10249834;28;20069;-61
2021/03/02 01:13:08;;;;;;;7.20;3.88;;;;;;;;;;10257398;28;20042;-61
2021/03/02 01:18:06;;;;;;;3.13;2.13;;;;;;;;;;10253130;28;20037;-63
2021/03/02 01:23:03;;;;;;;6.10;3.60;;;;;;;;;;10257200;28;20034;-62
2021/03/02 01:28:00;;;;;;;3.67;1.70;;;;;;;;;;10260034;28;20038;-62
2021/03/02 01:32:58;;;;;;;3.50;2.67;;;;;;;;;;10265366;28;20042;-65
2021/03/02 01:37:56;;;;;;;9.25;4.45;;;;;;;;;;10263261;28;20073;-62
2021/03/02 01:42:53;;;;;;;10.77;5.57;;;;;;;;;;10245883;28;20671;-63
2021/03/02 01:47:51;;;;;;;4.40;2.57;;;;;;;;;;10260299;28;20033;-62
2021/03/02 01:52:49;;;;;;;4.95;2.13;;;;;;;;;;10258908;28;20030;-62
2021/03/02 01:57:46;;;;;;;1.77;1.60;;;;;;;;;;10272177;28;20550;-63
2021/03/02 02:02:53;;;;;;;8.10;3.93;;;;;;;;;;10269351;28;20042;-62
2021/03/02 02:07:55;;;;;;;6.13;3.17;;;;;;;;;;10218269;28;20042;-64
2021/03/02 02:13:01;;;;;;;4.38;2.53;;;;;;;;;;10207363;28;20034;-65
2021/03/02 02:18:01;;;;;;;2.28;1.73;;;;;;;;;;10224329;28;20041;-63
2021/03/02 02:22:59;;;;;;;5.03;3.03;;;;;;;;;;10220419;28;20035;-62
2021/03/02 02:27:58;;;;;;;11.07;4.73;;;;;;;;;;10205911;28;20043;-61
2021/03/02 02:32:55;;;;;;;8.13;3.05;;;;;;;;;;10221945;28;20049;-62
2021/03/02 02:37:53;;;;;;;5.53;2.70;;;;;;;;;;10225152;28;20649;-62
2021/03/02 02:42:51;;;;;;;9.43;4.35;;;;;;;;;;10222876;28;20018;-63
2021/03/02 02:47:49;;;;;;;3.88;2.60;;;;;;;;;;10215542;28;20059;-63
2021/03/02 02:52:47;;;;;;;5.13;3.30;;;;;;;;;;10212244;28;20136;-63
2021/03/02 02:57:49;;;;;;;6.00;3.23;;;;;;;;;;10226519;28;20422;-63
2021/03/02 03:02:51;;;;;;;5.15;3.58;;;;;;;;;;10268157;28;20049;-62
2021/03/02 03:07:52;;;;;;;4.20;3.25;;;;;;;;;;10246421;28;20103;-63
2021/03/02 03:12:51;;;;;;;3.70;2.38;;;;;;;;;;10243916;28;20034;-64
2021/03/02 03:17:50;;;;;;;4.95;1.67;;;;;;;;;;10244668;28;20038;-63
2021/03/02 03:22:48;;;;;;;2.28;1.67;;;;;;;;;;10262762;28;20064;-63
2021/03/02 03:27:51;;;;;;;5.87;2.80;;;;;;;;;;10220545;28;20404;-62
2021/03/02 03:32:52;;;;;;;6.30;2.75;;;;;;;;;;10204886;28;20033;-64
2021/03/02 03:37:50;;;;;;;1.65;0.90;;;;;;;;;;10217924;28;20034;-62
2021/03/02 03:42:48;;;;;;;3.13;2.30;;;;;;;;;;10217188;28;20034;-62
2021/03/02 03:47:46;;;;;;;3.17;2.17;;;;;;;;;;10231223;28;20041;-64
2021/03/02 03:52:45;;;;;;;2.22;1.67;;;;;;;;;;10233992;28;20468;-63
2021/03/02 03:57:44;;;;;;;2.35;1.83;;;;;;;;;;10220993;28;20044;-61
2021/03/02 04:02:41;;;;;;;1.63;1.52;;;;;;;;;;10233051;28;20050;-62
2021/03/02 04:07:39;;;;;;;3.57;2.03;;;;;;;;;;10233265;28;20045;-61
2021/03/02 04:12:37;;;;;;;0.65;0.65;;;;;;;;;;10212990;28;20493;-63
2021/03/02 04:17:35;;;;;;;5.50;2.45;;;;;;;;;;10192383;28;20038;-63
2021/03/02 04:22:36;;;;;;;2.17;1.95;;;;;;;;;;10197957;28;20046;-63
2021/03/02 04:27:34;;;;;;;2.83;2.08;;;;;;;;;;10210781;28;20030;-62
2021/03/02 04:32:31;;;;;;;2.03;1.63;;;;;;;;;;10219217;28;20034;-61
2021/03/02 04:37:29;;;;;;;3.63;2.13;;;;;;;;;;10209371;28;20042;-62
2021/03/02 04:42:26;;;;;;;2.50;1.00;;;;;;;;;;10212828;28;20412;-61
2021/03/02 04:47:23;;;;;;;4.40;2.53;;;;;;;;;;10210938;28;20100;-62
2021/03/02 04:52:21;;;;;;;1.60;1.50;;;;;;;;;;10199989;28;20034;-63
2021/03/02 04:57:18;;;;;;;1.90;1.60;;;;;;;;;;10233070;28;20454;-63
2021/03/02 05:02:16;;;;;;;2.67;2.47;;;;;;;;;;10199647;28;20046;-61
2021/03/02 05:07:13;;;;;;;4.37;2.23;;;;;;;;;;10198016;28;20031;-61
2021/03/02 05:12:11;;;;;;;5.00;2.20;;;;;;;;;;10198405;28;20426;-65
2021/03/02 05:17:08;;;;;;;1.90;1.10;;;;;;;;;;10198040;28;20612;-61
2021/03/02 05:22:06;;;;;;;2.13;1.13;;;;;;;;;;10208817;28;20038;-62
2021/03/02 05:27:04;;;;;;;1.97;1.37;;;;;;;;;;10222344;28;20084;-62
2021/03/02 05:32:03;;;;;;;0.80;0.40;;;;;;;;;;10227027;28;20397;-61
2021/03/02 05:37:00;;;;;;;3.88;1.90;;;;;;;;;;10183639;28;20057;-61
2021/03/02 05:41:59;;;;;;;2.80;1.97;;;;;;;;;;10218050;28;20048;-62
2021/03/02 05:46:56;;;;;;;5.60;2.97;;;;;;;;;;10260678;28;20029;-60
2021/03/02 05:51:54;;;;;;;4.70;3.00;;;;;;;;;;10228127;28;20026;-62
2021/03/02 05:56:52;;;;;;;1.67;1.23;;;;;;;;;;10204648;28;20134;-60
2021/03/02 06:01:51;;;;;;;1.23;0.87;;;;;;;;;;10197389;28;20137;-61
2021/03/02 06:06:48;;;;;;;4.05;2.78;;;;;;;;;;10225143;28;20384;-62
2021/03/02 06:11:46;;;;;;;4.07;3.27;;;;;;;;;;10196478;28;20031;-61
2021/03/02 06:16:47;;;;;;;4.90;3.20;;;;;;;;;;10191729;28;20038;-62
2021/03/02 06:21:44;;;;;;;8.27;3.53;;;;;;;;;;10219760;28;20042;-61
2021/03/02 06:26:42;;;;;;;4.60;3.20;;;;;;;;;;10195175;28;20042;-61
2021/03/02 06:31:40;;;;;;;5.70;3.70;;;;;;;;;;10240759;28;20088;-58
2021/03/02 06:36:39;;;;;;;7.20;3.47;;;;;;;;;;10211267;28;20075;-62
2021/03/02 06:41:37;;;;;;;5.00;4.10;;;;;;;;;;10191968;28;20092;-61
2021/03/02 06:46:40;;;;;;;2.90;2.40;;;;;;;;;;10189007;28;20040;-65
2021/03/02 06:51:39;;;;;;;4.43;2.22;;;;;;;;;;10209802;28;20045;-61
2021/03/02 06:56:37;;;;;;;4.07;2.90;;;;;;;;;;10244466;28;20045;-62
2021/03/02 07:01:35;;;;;;;5.25;3.10;;;;;;;;;;10237605;28;20043;-61
2021/03/02 07:06:34;;;;;;;2.10;1.83;;;;;;;;;;10215093;28;20042;-65
2021/03/02 07:11:34;;;;;;;3.20;2.05;;;;;;;;;;10219523;28;20072;-63
2021/03/02 07:16:37;;;;;;;5.80;3.45;;;;;;;;;;10257914;28;20503;-62
2021/03/02 07:21:39;;;;;;;7.78;4.30;;;;;;;;;;10223568;28;20081;-62
2021/03/02 07:26:37;;;;;;;4.32;2.88;;;;;;;;;;10230309;28;20070;-61
2021/03/02 07:31:36;;;;;;;10.07;1.85;;;;;;;;;;10220622;28;20054;-62
2021/03/02 07:36:40;;;;;;;6.63;3.53;;;;;;;;;;10205648;28;20099;-62
2021/03/02 07:41:38;;;;;;;3.10;2.83;;;;;;;;;;10220032;28;20432;-66
2021/03/02 07:46:39;;;;;;;2.60;2.40;;;;;;;;;;10222014;28;20044;-61
2021/03/02 07:51:37;;;;;;;5.47;3.17;;;;;;;;;;10210475;28;20578;-62
2021/03/02 07:56:34;;;;;;;4.90;2.67;;;;;;;;;;10223079;28;20196;-63
2021/03/02 08:01:32;;;;;;;4.53;3.40;;;;;;;;;;10226844;28;20512;-61
2021/03/02 08:06:29;;;;;;;8.07;4.90;;;;;;;;;;10200077;28;20129;-65
2021/03/02 08:11:31;;;;;;;2.67;1.77;;;;;;;;;;10199695;28;20037;-63
2021/03/02 08:17:01;;;;;;;4.05;3.08;;;;;;;;;;10218819;28;20405;-62
2021/03/02 08:21:59;;;;;;;15.80;5.10;;;;;;;;;;10237277;28;20044;-62
2021/03/02 08:26:56;;;;;;;8.33;4.90;;;;;;;;;;10238049;28;20053;-62
2021/03/02 08:31:54;;;;;;;6.40;3.70;;;;;;;;;;10216904;28;20177;-63
2021/03/02 08:36:51;;;;;;;12.53;6.07;;;;;;;;;;10181388;28;20025;-62
2021/03/02 08:41:49;;;;;;;8.95;4.85;;;;;;;;;;10231534;28;20124;-63
2021/03/02 08:46:48;;;;;;;9.50;5.33;;;;;;;;;;10205089;28;20044;-64
2021/03/02 08:51:46;;;;;;;11.07;5.53;;;;;;;;;;10217477;28;20047;-63
2021/03/02 08:56:43;;;;;;;18.20;7.67;;;;;;;;;;10245893;28;20423;-62
2021/03/02 09:01:41;;;;;;;14.47;6.87;;;;;;;;;;10245321;28;20041;-62
2021/03/02 09:06:39;;;;;;;17.35;7.63;;;;;;;;;;10233817;28;20038;-62
2021/03/02 09:11:41;;;;;;;23.55;9.50;;;;;;;;;;10242441;28;20629;-63
2021/03/02 09:16:38;;;;;;;22.40;10.55;;;;;;;;;;10233474;28;20038;-63
2021/03/02 09:21:38;;;;;;;23.00;10.83;;;;;;;;;;10235250;28;20038;-62
2021/03/02 09:26:35;;;;;;;27.48;11.57;;;;;;;;;;10255680;28;20119;-62
2021/03/02 09:31:33;;;;;;;29.87;11.90;;;;;;;;;;10254146;28;20044;-65
2021/03/02 09:36:31;;;;;;;25.90;12.10;;;;;;;;;;10249800;28;20039;-62
2021/03/02 09:41:29;;;;;;;28.50;12.60;;;;;;;;;;10241873;28;20037;-63
2021/03/02 09:46:39;;;;;;;29.85;12.68;;;;;;;;;;10251998;28;20362;-64
2021/03/02 09:51:37;;;;;;;33.13;13.60;;;;;;;;;;10282879;22;20500;-65
2021/03/02 09:56:35;;;;;;;28.80;11.87;;;;;;;;;;10260252;28;20109;-64
2021/03/02 10:01:34;;;;;;;37.70;13.47;;;;;;;;;;10265970;28;20025;-65
2021/03/02 10:06:31;;;;;;;30.42;12.23;;;;;;;;;;10275739;28;20287;-63
2021/03/02 10:11:30;;;;;;;27.90;12.93;;;;;;;;;;10285898;28;20042;-64
2021/03/02 10:16:30;;;;;;;29.35;12.25;;;;;;;;;;10290407;28;20049;-66
2021/03/02 10:21:29;;;;;;;31.55;13.77;;;;;;;;;;10269328;28;20038;-67
2021/03/02 10:26:28;;;;;;;27.55;10.90;;;;;;;;;;10230593;28;20045;-66
2021/03/02 10:31:26;;;;;;;31.27;12.00;;;;;;;;;;10246271;28;20027;-63
2021/03/02 10:36:23;;;;;;;19.75;9.73;;;;;;;;;;10242994;28;20107;-62
2021/03/02 10:41:21;;;;;;;22.63;9.87;;;;;;;;;;10248986;28;20125;-63
2021/03/02 10:46:19;;;;;;;26.67;9.60;;;;;;;;;;10240817;28;20080;-63
2021/03/02 10:51:18;;;;;;;24.42;10.35;;;;;;;;;;10263508;28;20522;-62
2021/03/02 10:56:15;;;;;;;;;;;;;;;;;;10272996;28;20033;-62
2021/03/02 11:01:12;;;;;;;24.88;10.10;;;;;;;;;;10259121;23;19932;-66
2021/03/02 11:06:14;;;;;;;25.33;11.10;;;;;;;;;;10336297;28;20029;-66
2021/03/02 11:11:12;;;;;;;26.20;10.77;;;;;;;;;;10336075;28;20049;-66
2021/03/02 11:16:10;;;;;;;23.60;9.87;;;;;;;;;;10316467;28;20744;-65
2021/03/02 11:21:07;;;;;;;21.08;9.55;;;;;;;;;;10327150;28;20037;-64
2021/03/02 11:26:05;;;;;;;24.30;9.63;;;;;;;;;;10311627;28;20537;-65
2021/03/02 11:31:02;;;;;;;22.50;9.27;;;;;;;;;;10270382;22;20304;-66
2021/03/02 11:36:00;;;;;;;23.47;9.20;;;;;;;;;;10276949;28;20025;-65
2021/03/02 11:40:59;;;;;;;26.13;10.00;;;;;;;;;;10283499;22;20538;-63
2021/03/02 11:45:56;;;;;;;22.20;9.32;;;;;;;;;;10352854;28;20048;-63
2021/03/02 11:50:54;;;;;;;18.47;8.90;;;;;;;;;;10346191;28;20051;-63
2021/03/02 11:55:51;;;;;;;22.87;8.47;;;;;;;;;;10342317;28;20032;-64
2021/03/02 12:00:49;;;;;;;26.47;9.20;;;;;;;;;;10345657;28;20044;-63
2021/03/02 12:05:47;;;;;;;19.90;8.30;;;;;;;;;;10361373;28;20502;-63
2021/03/02 12:10:44;;;;;;;22.50;8.17;;;;;;;;;;10347226;28;20064;-63
2021/03/02 12:15:41;;;;;;;19.10;8.60;;;;;;;;;;10267640;22;21373;-67
2021/03/02 12:20:39;;;;;;;24.97;8.97;;;;;;;;;;10257990;28;20417;-66
2021/03/02 12:25:36;;;;;;;22.20;8.20;;;;;;;;;;10258932;28;20026;-68
2021/03/02 12:30:34;;;;;;;19.07;7.60;;;;;;;;;;10329586;23;20048;-65
2021/03/02 12:35:32;;;;;;;22.13;9.20;;;;;;;;;;10345871;28;20227;-64
2021/03/02 12:40:29;;;;;;;22.02;8.75;;;;;;;;;;10347322;28;20074;-65
2021/03/02 12:45:27;;;;;;;21.87;9.33;;;;;;;;;;10339645;28;20045;-65
2021/03/02 12:50:24;;;;;;;23.40;11.10;;;;;;;;;;10342079;28;20040;-64
2021/03/02 12:55:21;;;;;;;20.07;8.37;;;;;;;;;;10327063;28;20135;-63
2021/03/02 13:00:19;;;;;;;21.77;8.90;;;;;;;;;;10307995;28;21726;-64
2021/03/02 13:05:17;;;;;;;19.90;7.53;;;;;;;;;;10321174;28;20036;-64
2021/03/02 13:10:15;;;;;;;20.25;9.05;;;;;;;;;;10362399;28;20506;-65
2021/03/02 13:15:12;;;;;;;27.90;9.60;;;;;;;;;;10353661;28;20037;-65
2021/03/02 13:20:10;;;;;;;20.55;8.73;;;;;;;;;;10354636;28;20044;-63
2021/03/02 13:25:08;;;;;;;26.63;9.73;;;;;;;;;;10355014;28;20048;-61
2021/03/02 13:30:08;;;;;;;22.85;9.57;;;;;;;;;;10306434;28;20673;-62
2021/03/02 13:35:06;;;;;;;21.80;9.75;;;;;;;;;;10349041;28;20179;-62
2021/03/02 13:40:05;;;;;;;20.98;8.75;;;;;;;;;;10315871;28;20039;-66
2021/03/02 13:45:03;;;;;;;28.75;10.68;;;;;;;;;;10319864;28;20059;-65
2021/03/02 13:50:01;;;;;;;20.38;8.52;;;;;;;;;;10313269;28;20039;-62
2021/03/02 13:54:59;;;;;;;17.97;7.20;;;;;;;;;;10322855;28;20032;-63
2021/03/02 13:59:56;;;;;;;27.77;9.88;;;;;;;;;;10326002;28;20040;-62
2021/03/02 14:04:57;;;;;;;20.07;9.03;;;;;;;;;;10299480;28;20048;-60
2021/03/02 14:09:54;;;;;;;24.23;9.23;;;;;;;;;;10320970;28;20268;-60
2021/03/02 14:14:53;;;;;;;20.17;7.50;;;;;;;;;;10308432;28;20040;-62
2021/03/02 14:19:51;;;;;;;19.40;8.15;;;;;;;;;;10312658;28;20072;-64
2021/03/02 14:24:48;;;;;;;19.63;7.88;;;;;;;;;;10314240;28;20033;-61
2021/03/02 14:29:48;;;;;;;23.87;8.37;;;;;;;;;;10306512;28;20046;-63
2021/03/02 14:34:47;;;;;;;21.42;9.07;;;;;;;;;;10336701;28;20310;-63
2021/03/02 14:39:45;;;;;;;19.17;9.10;;;;;;;;;;10326514;28;20036;-62
2021/03/02 14:44:44;;;;;;;18.80;8.73;;;;;;;;;;10354411;28;20033;-61
2021/03/02 14:49:49;;;;;;;23.45;10.25;;;;;;;;;;10303657;28;20043;-62
2021/03/02 14:54:49;;;;;;;31.42;9.48;;;;;;;;;;10324629;28;20694;-63
2021/03/02 14:59:47;;;;;;;24.15;9.20;;;;;;;;;;10322577;28;20090;-63
2021/03/02 15:04:45;;;;;;;27.27;9.70;;;;;;;;;;10315343;28;20502;-63
2021/03/02 15:09:43;;;;;;;29.42;11.07;;;;;;;;;;10359860;28;20065;-65
2021/03/02 15:14:41;;;;;;;28.20;11.85;;;;;;;;;;10357626;28;20032;-64
2021/03/02 15:19:38;;;;;;;31.25;10.10;;;;;;;;;;10344649;28;20024;-65
2021/03/02 15:24:36;;;;;;;17.65;7.10;;;;;;;;;;10350115;28;20024;-64
2021/03/02 15:29:36;;;;;;;21.45;9.20;;;;;;;;;;10351014;28;20127;-65
2021/03/02 15:34:35;;;;;;;30.33;10.73;;;;;;;;;;10304892;28;20086;-65
2021/03/02 15:39:33;;;;;;;25.17;10.63;;;;;;;;;;10356180;28;20036;-63
2021/03/02 15:44:30;;;;;;;37.93;11.73;;;;;;;;;;10336648;28;20037;-64
2021/03/02 15:49:28;;;;;;;36.30;12.63;;;;;;;;;;10352418;28;20037;-63
2021/03/02 15:54:26;;;;;;;30.57;11.13;;;;;;;;;;10352780;28;20039;-64
2021/03/02 15:59:24;;;;;;;25.73;11.43;;;;;;;;;;10348679;28;20037;-62
2021/03/02 16:04:25;;;;;;;29.70;11.30;;;;;;;;;;10377559;28;20043;-62
2021/03/02 16:09:24;;;;;;;37.22;12.65;;;;;;;;;;10361499;28;20432;-63
2021/03/02 16:14:23;;;;;;;12.63;5.63;;;;;;;;;;10372134;28;20041;-66
2021/03/02 16:19:23;;;;;;;15.40;6.30;;;;;;;;;;10368929;28;20040;-64
2021/03/02 16:24:20;;;;;;;30.33;11.75;;;;;;;;;;10378525;28;20051;-63
2021/03/02 16:29:18;;;;;;;25.97;11.53;;;;;;;;;;10365153;28;20041;-63
2021/03/02 16:34:16;;;;;;;25.13;11.77;;;;;;;;;;10354549;28;20461;-62
2021/03/02 16:39:13;;;;;;;25.23;11.57;;;;;;;;;;10365421;28;20047;-63
2021/03/02 16:44:11;;;;;;;28.20;10.77;;;;;;;;;;10376315;28;20062;-60
2021/03/02 16:49:10;;;;;;;32.40;11.48;;;;;;;;;;10306361;28;20102;-62
2021/03/02 16:54:07;;;;;;;25.02;11.48;;;;;;;;;;10338415;28;20331;-63
2021/03/02 16:59:05;;;;;;;26.63;11.90;;;;;;;;;;10350306;28;20039;-62
2021/03/02 17:04:04;;;;;;;14.45;7.32;;;;;;;;;;10365417;28;20502;-62
2021/03/02 17:09:03;;;;;;;15.80;6.40;;;;;;;;;;10363571;28;20043;-63
2021/03/02 17:14:01;;;;;;;13.15;7.15;;;;;;;;;;10350708;28;20052;-64
2021/03/02 17:18:58;;;;;;;18.73;6.80;;;;;;;;;;10369981;28;20090;-63
2021/03/02 17:23:55;;;;;;;18.87;8.60;;;;;;;;;;10373326;28;20039;-63
2021/03/02 17:28:53;;;;;;;24.33;10.13;;;;;;;;;;10359868;28;20032;-62
2021/03/02 17:33:50;;;;;;;23.27;8.63;;;;;;;;;;10364052;28;20035;-60
2021/03/02 17:38:48;;;;;;;15.80;7.20;;;;;;;;;;10350868;28;20032;-62
2021/03/02 17:43:45;;;;;;;22.30;8.10;;;;;;;;;;10358145;28;20055;-63
2021/03/02 17:48:42;;;;;;;19.83;6.43;;;;;;;;;;10360841;28;20032;-63
2021/03/02 17:53:40;;;;;;;19.67;7.60;;;;;;;;;;10362321;28;20040;-63
2021/03/02 17:58:37;;;;;;;34.43;21.33;;;;;;;;;;10337331;28;20549;-63
2021/03/02 18:03:34;;;;;;;20.77;13.53;;;;;;;;;;10361730;28;20158;-63
2021/03/02 18:08:32;;;;;;;13.27;7.40;;;;;;;;;;10333939;28;20044;-63
2021/03/02 18:13:29;;;;;;;13.50;5.53;;;;;;;;;;10263061;22;20078;-64
2021/03/02 18:18:27;;;;;;;13.47;6.07;;;;;;;;;;10224625;28;20092;-62
2021/03/02 18:23:26;;;;;;;21.73;8.27;;;;;;;;;;10219174;28;20057;-65
2021/03/02 18:28:23;;;;;;;19.63;7.10;;;;;;;;;;10197063;28;20512;-62
2021/03/02 18:33:20;;;;;;;18.77;7.53;;;;;;;;;;10194224;28;20120;-65
2021/03/02 18:38:19;;;;;;;15.68;5.13;;;;;;;;;;10225946;28;20084;-64
2021/03/02 18:43:16;;;;;;;9.23;5.37;;;;;;;;;;10222873;28;20034;-62
2021/03/02 18:48:14;;;;;;;10.77;4.40;;;;;;;;;;10265727;23;20131;-65
2021/03/02 18:53:11;;;;;;;15.87;5.37;;;;;;;;;;10294882;28;20478;-64
2021/03/02 18:58:16;;;;;;;7.97;3.53;;;;;;;;;;10300899;22;20034;-65
2021/03/02 19:03:14;;;;;;;12.70;6.53;;;;;;;;;;10234826;28;20115;-66
2021/03/02 19:08:11;;;;;;;3.57;2.70;;;;;;;;;;10283229;28;20247;-65
2021/03/02 19:13:09;;;;;;;3.87;2.30;;;;;;;;;;10285569;28;20499;-65
2021/03/02 19:18:06;;;;;;;4.27;2.20;;;;;;;;;;10272543;28;20071;-66
2021/03/02 19:23:04;;;;;;;9.97;3.03;;;;;;;;;;10265003;28;20435;-65
2021/03/02 19:28:01;;;;;;;6.43;2.87;;;;;;;;;;10232000;28;20610;-65
2021/03/02 19:32:58;;;;;;;7.17;3.00;;;;;;;;;;10120151;23;20143;-65
2021/03/02 19:37:56;;;;;;;8.33;3.43;;;;;;;;;;10101387;28;20516;-65
2021/03/02 19:42:54;;;;;;;5.13;3.47;;;;;;;;;;10109024;28;20526;-65
2021/03/02 19:47:52;;;;;;;6.55;3.40;;;;;;;;;;10101305;28;20142;-63
2021/03/02 19:52:49;;;;;;;14.90;6.10;;;;;;;;;;10091449;28;20039;-64
2021/03/02 19:57:47;;;;;;;13.77;6.30;;;;;;;;;;10105247;28;20092;-64
2021/03/02 20:02:44;;;;;;;13.63;6.33;;;;;;;;;;10125759;28;20580;-65
2021/03/02 20:07:42;;;;;;;12.63;6.00;;;;;;;;;;10108056;28;20039;-64
2021/03/02 20:12:40;;;;;;;15.43;6.00;;;;;;;;;;10135546;28;20449;-62
2021/03/02 20:17:37;;;;;;;15.55;6.88;;;;;;;;;;10143034;28;20039;-62
2021/03/02 20:22:35;;;;;;;12.60;5.73;;;;;;;;;;10113252;28;20027;-61
2021/03/02 20:27:32;;;;;;;19.30;6.20;;;;;;;;;;10106670;28;20263;-59
2021/03/02 20:32:29;;;;;;;6.73;3.93;;;;;;;;;;10083901;28;20417;-61
2021/03/02 20:37:27;;;;;;;10.07;5.57;;;;;;;;;;10101167;28;20614;-61
2021/03/02 20:42:24;;;;;;;13.77;6.47;;;;;;;;;;10105269;28;20494;-58
2021/03/02 20:47:22;;;;;;;17.80;7.53;;;;;;;;;;10083357;28;20453;-59
2021/03/02 20:52:19;;;;;;;15.30;7.50;;;;;;;;;;10098497;28;20509;-58
2021/03/02 20:57:16;;;;;;;18.80;8.27;;;;;;;;;;10101716;28;20047;-62
2021/03/02 21:02:14;;;;;;;17.33;8.27;;;;;;;;;;10094880;28;20035;-60
2021/03/02 21:07:11;;;;;;;14.70;7.23;;;;;;;;;;10090898;28;20472;-60
2021/03/02 21:12:09;;;;;;;18.60;7.30;;;;;;;;;;10098545;28;20035;-59
2021/03/02 21:17:06;;;;;;;13.47;6.90;;;;;;;;;;10090543;28;20039;-60
2021/03/02 21:22:04;;;;;;;12.30;7.03;;;;;;;;;;10092877;28;20050;-59
2021/03/02 21:27:02;;;;;;;15.37;6.10;;;;;;;;;;10080092;28;20165;-60
2021/03/02 21:31:59;;;;;;;7.70;4.82;;;;;;;;;;10082643;28;20302;-60
2021/03/02 21:36:57;;;;;;;18.03;8.63;;;;;;;;;;10074930;28;20702;-59
2021/03/02 21:41:54;;;;;;;19.83;9.23;;;;;;;;;;10093855;28;20125;-61
2021/03/02 21:46:51;;;;;;;15.60;7.33;;;;;;;;;;10098814;28;20418;-61
2021/03/02 21:51:49;;;;;;;19.77;8.40;;;;;;;;;;10104420;28;20032;-63
2021/03/02 21:56:46;;;;;;;17.93;8.47;;;;;;;;;;10095733;28;20049;-62
2021/03/02 22:01:44;;;;;;;19.70;8.30;;;;;;;;;;10101693;28;20067;-61
2021/03/02 22:06:41;;;;;;;19.47;9.07;;;;;;;;;;10096248;28;20519;-62
2021/03/02 22:11:39;;;;;;;21.10;9.07;;;;;;;;;;10103805;28;20398;-60
2021/03/02 22:16:36;;;;;;;21.67;9.77;;;;;;;;;;10098409;28;20041;-64
2021/03/02 22:21:34;;;;;;;19.23;8.02;;;;;;;;;;10101536;28;20040;-56
2021/03/02 22:26:31;;;;;;;23.03;9.23;;;;;;;;;;10110595;28;20031;-59
2021/03/02 22:31:29;;;;;;;17.87;7.57;;;;;;;;;;10085106;28;20154;-61
2021/03/02 22:36:27;;;;;;;16.73;7.77;;;;;;;;;;10104349;28;20137;-59
2021/03/02 22:41:24;;;;;;;18.63;8.13;;;;;;;;;;10095913;28;20043;-63
2021/03/02 22:46:22;;;;;;;16.53;8.00;;;;;;;;;;10096402;28;20027;-62
2021/03/02 22:51:19;;;;;;;13.00;6.80;;;;;;;;;;10103250;28;20094;-59
2021/03/02 22:56:16;;;;;;;10.50;5.40;;;;;;;;;;10107651;28;21320;-61
2021/03/02 23:01:14;;;;;;;14.90;7.93;;;;;;;;;;10103426;28;20413;-63
2021/03/02 23:06:12;;;;;;;14.07;7.53;;;;;;;;;;10107767;28;20542;-61
2021/03/02 23:11:09;;;;;;;16.57;6.80;;;;;;;;;;10100623;28;20885;-64
2021/03/02 23:16:07;;;;;;;9.57;4.50;;;;;;;;;;10087357;22;20125;-64
2021/03/02 23:21:04;;;;;;;15.50;7.07;;;;;;;;;;10107477;28;20143;-65
2021/03/02 23:26:02;;;;;;;17.53;8.00;;;;;;;;;;10111066;28;20047;-65
2021/03/02 23:31:00;;;;;;;6.97;3.90;;;;;;;;;;10099997;28;20300;-67
2021/03/02 23:35:57;;;;;;;18.88;7.70;;;;;;;;;;10102180;28;20421;-68
2021/03/02 23:40:55;;;;;;;14.53;6.10;;;;;;;;;;10110289;28;20069;-67
2021/03/02 23:45:52;;;;;;;11.20;5.47;;;;;;;;;;10118673;28;20019;-67
2021/03/02 23:50:50;;;;;;;20.27;6.97;;;;;;;;;;10365770;22;20067;-62
2021/03/02 23:55:47;;;;;;;11.37;5.97;;;;;;;;;;10350674;28;20032;-64
